Destin, FL (32540)

9:23 AM CST on March 02, 2015 (GMT -0600)
Destin Water Users | Change Station
CLOSE
Current Station
Personal Weather Station
Location: Destin, FL
Elevation: 26 ft
Nearby Weather Stations

Elev 26 ft 30.39 °N, 86.48 °W | Updated 6 seconds ago

Overcast
Overcast
60.2 °F
Feels Like 60.2 °F
N
2.3
Wind Variable Wind from NNE
Gusts 2.3 mph

Today
High -- | Low -- °F
--% Chance of Precip.
Yesterday
High -- | Low -- °F
Precip. -- in
6:11 AM 5:45 PM
Waxing Gibbous, 91% visible
Pressure 30.32 in
Visibility 0.8 miles
Clouds Overcast 300 ft
Dew Point 58 °F
Humidity 94%
Rainfall 0.00 in
Snow Depth Not available.
UV 1 out of 12
Pollen 7.60 out of 12
Air Quality Not available.
Flu Activity Not available.
METAR KDTS 021453Z AUTO 05005KT 3/4SM BR OVC003 15/14 A3032 RMK AO2 SLP266 T01500139 51016 TSNO

More Conditions Fewer Conditions

Pressure 30.32 in
Visibility 0.8 miles
Clouds Overcast 300 ft
Dew Point 58 °F
Humidity 94%
Rainfall 0.00 in
Snow Depth Not available.
UV 1 out of 12
Pollen 7.60 out of 12
Air Quality Not available.
Flu Activity Not available.
METAR KDTS 021453Z AUTO 05005KT 3/4SM BR OVC003 15/14 A3032 RMK AO2 SLP266 T01500139 51016 TSNO

More Conditions Fewer Conditions

10-Day Weather Forecast

Almanac

Astronomy

Mar. 02, 2015 Rise Set
Actual Time
Civil Twilight
Nautical Twilight
Astronomical Twilight
Moon
Length of Visible Light
Length of Day
Tomorrow will be .
, % of the Moon is Illuminated

Today's Extremes

State Highs State Lows

Community

WunderPhotos

Upload Photos

1,801,811 photos uploaded!

WunderBlogs® & News

Nearby

Air Quality

  Air Quality AQ Index Pollutant
Not available.

Snow Depth

Station Depth Elevation

Earthquake Activity

City Distance Mag. Time & Date
Minimum magnitude displayed is 2.5.

Coastal Water Temperatures

Place Temperature

Nearby Weather Stations